sensor_id;sensor_type;location;lat;lon;timestamp;pressure;altitude;pressure_sealevel;temperature;humidity
81125;BME280;72192;52.114;5.424;2023-09-30T00:02:30;102598.03;;;10.62;95.97
81125;BME280;72192;52.114;5.424;2023-09-30T00:05:18;102607.09;;;10.61;95.83
81125;BME280;72192;52.114;5.424;2023-09-30T00:08:06;102605.03;;;10.65;96.07
81125;BME280;72192;52.114;5.424;2023-09-30T00:10:54;102610.78;;;10.71;96.22
81125;BME280;72192;52.114;5.424;2023-09-30T00:13:42;102605.66;;;10.79;96.68
81125;BME280;72192;52.114;5.424;2023-09-30T00:16:32;102608.00;;;10.84;97.02
81125;BME280;72192;52.114;5.424;2023-09-30T00:19:21;102603.06;;;10.89;97.11
81125;BME280;72192;52.114;5.424;2023-09-30T00:22:09;102602.72;;;10.94;97.38
81125;BME280;72192;52.114;5.424;2023-09-30T00:24:57;102607.00;;;10.96;97.46
81125;BME280;72192;52.114;5.424;2023-09-30T00:27:45;102598.06;;;10.96;97.36
81125;BME280;72192;52.114;5.424;2023-09-30T00:30:34;102603.31;;;10.97;97.68
81125;BME280;72192;52.114;5.424;2023-09-30T00:33:22;102610.44;;;10.98;97.61
81125;BME280;72192;52.114;5.424;2023-09-30T00:36:11;102605.78;;;11.00;97.57
81125;BME280;72192;52.114;5.424;2023-09-30T00:39:00;102606.63;;;11.01;97.79
81125;BME280;72192;52.114;5.424;2023-09-30T00:41:48;102616.59;;;11.00;97.78
81125;BME280;72192;52.114;5.424;2023-09-30T00:44:36;102626.19;;;11.04;97.88
81125;BME280;72192;52.114;5.424;2023-09-30T00:47:25;102631.34;;;11.07;98.02
81125;BME280;72192;52.114;5.424;2023-09-30T00:50:14;102631.72;;;11.14;97.99
81125;BME280;72192;52.114;5.424;2023-09-30T00:53:03;102633.31;;;11.16;97.82
81125;BME280;72192;52.114;5.424;2023-09-30T00:55:52;102631.47;;;11.17;97.87
81125;BME280;72192;52.114;5.424;2023-09-30T00:58:43;102643.00;;;11.19;97.79
81125;BME280;72192;52.114;5.424;2023-09-30T01:01:33;102645.72;;;11.19;97.90
81125;BME280;72192;52.114;5.424;2023-09-30T01:04:21;102640.09;;;11.22;98.04
81125;BME280;72192;52.114;5.424;2023-09-30T01:07:10;102636.25;;;11.25;98.16
81125;BME280;72192;52.114;5.424;2023-09-30T01:09:58;102642.53;;;11.25;98.02
81125;BME280;72192;52.114;5.424;2023-09-30T01:12:46;102649.91;;;11.23;98.19
81125;BME280;72192;52.114;5.424;2023-09-30T01:15:34;102648.28;;;11.20;98.21
81125;BME280;72192;52.114;5.424;2023-09-30T01:18:23;102636.88;;;11.17;98.09
81125;BME280;72192;52.114;5.424;2023-09-30T01:21:12;102635.41;;;11.13;98.01
81125;BME280;72192;52.114;5.424;2023-09-30T01:24:01;102647.22;;;11.12;98.26
81125;BME280;72192;52.114;5.424;2023-09-30T01:26:49;102649.16;;;11.10;98.16
81125;BME280;72192;52.114;5.424;2023-09-30T01:29:37;102661.94;;;11.08;98.37
81125;BME280;72192;52.114;5.424;2023-09-30T01:32:25;102674.47;;;11.09;98.32
81125;BME280;72192;52.114;5.424;2023-09-30T01:35:14;102664.28;;;11.12;98.60
81125;BME280;72192;52.114;5.424;2023-09-30T01:38:02;102662.91;;;11.18;98.50
81125;BME280;72192;52.114;5.424;2023-09-30T01:40:51;102660.94;;;11.20;98.48
81125;BME280;72192;52.114;5.424;2023-09-30T01:43:41;102656.31;;;11.22;98.50
81125;BME280;72192;52.114;5.424;2023-09-30T01:46:29;102654.59;;;11.21;98.54
81125;BME280;72192;52.114;5.424;2023-09-30T01:49:17;102653.69;;;11.20;98.52
81125;BME280;72192;52.114;5.424;2023-09-30T01:52:05;102664.28;;;11.24;98.54
81125;BME280;72192;52.114;5.424;2023-09-30T01:54:53;102659.88;;;11.23;98.68
81125;BME280;72192;52.114;5.424;2023-09-30T01:57:42;102657.03;;;11.24;98.62
81125;BME280;72192;52.114;5.424;2023-09-30T02:00:30;102640.94;;;11.23;98.35
81125;BME280;72192;52.114;5.424;2023-09-30T02:03:18;102636.88;;;11.17;98.24
81125;BME280;72192;52.114;5.424;2023-09-30T02:06:07;102636.63;;;11.09;98.00
81125;BME280;72192;52.114;5.424;2023-09-30T02:08:56;102639.31;;;10.98;97.75
81125;BME280;72192;52.114;5.424;2023-09-30T02:11:45;102639.44;;;10.85;97.51
81125;BME280;72192;52.114;5.424;2023-09-30T02:14:33;102644.34;;;10.80;97.49
81125;BME280;72192;52.114;5.424;2023-09-30T02:17:21;102648.13;;;10.77;97.63
81125;BME280;72192;52.114;5.424;2023-09-30T02:20:09;102656.00;;;10.80;98.03
81125;BME280;72192;52.114;5.424;2023-09-30T02:23:02;102654.66;;;10.86;98.21
81125;BME280;72192;52.114;5.424;2023-09-30T02:25:52;102649.38;;;10.84;98.39
81125;BME280;72192;52.114;5.424;2023-09-30T02:28:40;102650.38;;;10.83;98.40
81125;BME280;72192;52.114;5.424;2023-09-30T02:31:29;102654.53;;;10.87;98.67
81125;BME280;72192;52.114;5.424;2023-09-30T02:34:17;102649.88;;;10.89;98.73
81125;BME280;72192;52.114;5.424;2023-09-30T02:37:05;102653.94;;;10.95;99.03
81125;BME280;72192;52.114;5.424;2023-09-30T02:39:53;102650.78;;;11.01;98.92
81125;BME280;72192;52.114;5.424;2023-09-30T02:42:42;102642.16;;;11.07;98.95
81125;BME280;72192;52.114;5.424;2023-09-30T02:45:31;102638.25;;;11.11;98.93
81125;BME280;72192;52.114;5.424;2023-09-30T02:48:19;102637.47;;;11.09;98.95
81125;BME280;72192;52.114;5.424;2023-09-30T02:51:10;102635.63;;;11.10;98.70
81125;BME280;72192;52.114;5.424;2023-09-30T02:53:59;102636.28;;;11.13;98.73
81125;BME280;72192;52.114;5.424;2023-09-30T02:56:47;102630.47;;;11.18;98.76
81125;BME280;72192;52.114;5.424;2023-09-30T02:59:35;102641.53;;;11.26;98.91
81125;BME280;72192;52.114;5.424;2023-09-30T03:02:24;102647.19;;;11.34;99.08
81125;BME280;72192;52.114;5.424;2023-09-30T03:04:53;102644.63;;;11.33;98.72
81125;BME280;72192;52.114;5.424;2023-09-30T03:07:45;102637.97;;;11.37;98.77
81125;BME280;72192;52.114;5.424;2023-09-30T03:10:33;102646.59;;;11.42;98.52
81125;BME280;72192;52.114;5.424;2023-09-30T03:13:27;102641.50;;;11.48;98.73
81125;BME280;72192;52.114;5.424;2023-09-30T03:16:15;102645.44;;;11.56;98.46
81125;BME280;72192;52.114;5.424;2023-09-30T03:19:03;102634.13;;;11.62;98.81
81125;BME280;72192;52.114;5.424;2023-09-30T03:21:52;102637.94;;;11.59;98.65
81125;BME280;72192;52.114;5.424;2023-09-30T03:24:41;102627.09;;;11.59;98.50
81125;BME280;72192;52.114;5.424;2023-09-30T03:27:30;102632.66;;;11.58;98.29
81125;BME280;72192;52.114;5.424;2023-09-30T03:30:18;102635.13;;;11.61;98.43
81125;BME280;72192;52.114;5.424;2023-09-30T03:33:06;102627.72;;;11.63;98.72
81125;BME280;72192;52.114;5.424;2023-09-30T03:35:55;102631.78;;;11.57;98.51
81125;BME280;72192;52.114;5.424;2023-09-30T03:38:44;102633.91;;;11.54;98.25
81125;BME280;72192;52.114;5.424;2023-09-30T03:41:33;102627.63;;;11.53;98.24
81125;BME280;72192;52.114;5.424;2023-09-30T03:44:23;102629.47;;;11.53;98.24
81125;BME280;72192;52.114;5.424;2023-09-30T03:47:11;102627.63;;;11.53;98.49
81125;BME280;72192;52.114;5.424;2023-09-30T03:49:59;102633.03;;;11.53;98.57
81125;BME280;72192;52.114;5.424;2023-09-30T03:53:01;102637.59;;;11.53;98.47
81125;BME280;72192;52.114;5.424;2023-09-30T03:55:51;102636.88;;;11.51;98.68
81125;BME280;72192;52.114;5.424;2023-09-30T03:58:43;102628.75;;;11.51;98.73
81125;BME280;72192;52.114;5.424;2023-09-30T04:01:35;102635.88;;;11.52;98.94
81125;BME280;72192;52.114;5.424;2023-09-30T04:04:26;102636.97;;;11.49;98.66
81125;BME280;72192;52.114;5.424;2023-09-30T04:07:15;102638.94;;;11.47;98.70
81125;BME280;72192;52.114;5.424;2023-09-30T04:10:03;102636.38;;;11.45;99.00
81125;BME280;72192;52.114;5.424;2023-09-30T04:12:52;102638.22;;;11.45;98.78
81125;BME280;72192;52.114;5.424;2023-09-30T04:15:40;102635.50;;;11.45;99.15
81125;BME280;72192;52.114;5.424;2023-09-30T04:18:29;102639.19;;;11.44;99.00
81125;BME280;72192;52.114;5.424;2023-09-30T04:21:17;102645.47;;;11.44;99.05
81125;BME280;72192;52.114;5.424;2023-09-30T04:24:05;102645.22;;;11.47;99.04
81125;BME280;72192;52.114;5.424;2023-09-30T04:26:53;102647.91;;;11.47;99.11
81125;BME280;72192;52.114;5.424;2023-09-30T04:29:48;102647.31;;;11.44;99.29
81125;BME280;72192;52.114;5.424;2023-09-30T04:32:37;102648.53;;;11.40;98.80
81125;BME280;72192;52.114;5.424;2023-09-30T04:35:26;102645.81;;;11.40;99.22
81125;BME280;72192;52.114;5.424;2023-09-30T04:38:17;102653.94;;;11.40;99.26
81125;BME280;72192;52.114;5.424;2023-09-30T04:41:05;102658.38;;;11.41;99.00
81125;BME280;72192;52.114;5.424;2023-09-30T04:43:56;102662.91;;;11.40;99.14
81125;BME280;72192;52.114;5.424;2023-09-30T04:46:44;102665.63;;;11.40;99.31
81125;BME280;72192;52.114;5.424;2023-09-30T04:49:32;102658.50;;;11.39;99.43
81125;BME280;72192;52.114;5.424;2023-09-30T04:52:20;102660.34;;;11.39;99.38
81125;BME280;72192;52.114;5.424;2023-09-30T04:54:51;102659.59;;;11.37;99.58
81125;BME280;72192;52.114;5.424;2023-09-30T04:57:39;102660.84;;;11.33;99.44
81125;BME280;72192;52.114;5.424;2023-09-30T05:00:27;102668.22;;;11.31;99.40
81125;BME280;72192;52.114;5.424;2023-09-30T05:03:17;102662.19;;;11.27;99.83
81125;BME280;72192;52.114;5.424;2023-09-30T05:06:05;102676.69;;;11.26;99.57
81125;BME280;72192;52.114;5.424;2023-09-30T05:08:54;102677.69;;;11.25;99.95
81125;BME280;72192;52.114;5.424;2023-09-30T05:11:42;102671.53;;;11.23;99.67
81125;BME280;72192;52.114;5.424;2023-09-30T05:14:31;102676.94;;;11.23;99.89
81125;BME280;72192;52.114;5.424;2023-09-30T05:17:20;102675.09;;;11.24;100.00
81125;BME280;72192;52.114;5.424;2023-09-30T05:20:09;102668.84;;;11.23;100.00
81125;BME280;72192;52.114;5.424;2023-09-30T05:22:59;102669.44;;;11.15;99.93
81125;BME280;72192;52.114;5.424;2023-09-30T05:25:47;102668.84;;;11.12;99.93
81125;BME280;72192;52.114;5.424;2023-09-30T05:28:35;102671.88;;;11.07;99.86
81125;BME280;72192;52.114;5.424;2023-09-30T05:31:23;102675.31;;;11.09;99.98
81125;BME280;72192;52.114;5.424;2023-09-30T05:34:11;102681.84;;;11.07;99.97
81125;BME280;72192;52.114;5.424;2023-09-30T05:36:59;102679.13;;;11.07;100.00
81125;BME280;72192;52.114;5.424;2023-09-30T05:39:48;102686.63;;;11.03;100.00
81125;BME280;72192;52.114;5.424;2023-09-30T05:42:36;102675.19;;;11.00;100.00
81125;BME280;72192;52.114;5.424;2023-09-30T05:45:25;102683.31;;;11.00;100.00
81125;BME280;72192;52.114;5.424;2023-09-30T05:48:15;102681.84;;;10.96;100.00
81125;BME280;72192;52.114;5.424;2023-09-30T05:51:03;102678.28;;;10.95;100.00
81125;BME280;72192;52.114;5.424;2023-09-30T05:53:52;102672.88;;;10.95;100.00
81125;BME280;72192;52.114;5.424;2023-09-30T05:56:41;102674.84;;;10.93;100.00
81125;BME280;72192;52.114;5.424;2023-09-30T05:59:30;102674.06;;;10.91;100.00
81125;BME280;72192;52.114;5.424;2023-09-30T06:02:18;102673.97;;;10.93;100.00
81125;BME280;72192;52.114;5.424;2023-09-30T06:05:06;102684.41;;;10.97;100.00
81125;BME280;72192;52.114;5.424;2023-09-30T06:07:55;102675.31;;;10.98;100.00
81125;BME280;72192;52.114;5.424;2023-09-30T06:10:43;102679.63;;;11.01;100.00
81125;BME280;72192;52.114;5.424;2023-09-30T06:13:33;102686.38;;;11.06;100.00
81125;BME280;72192;52.114;5.424;2023-09-30T06:16:21;102681.50;;;11.11;100.00
81125;BME280;72192;52.114;5.424;2023-09-30T06:19:13;102690.81;;;11.18;100.00
81125;BME280;72192;52.114;5.424;2023-09-30T06:22:01;102675.84;;;11.26;100.00
81125;BME280;72192;52.114;5.424;2023-09-30T06:24:49;102672.53;;;11.33;100.00
81125;BME280;72192;52.114;5.424;2023-09-30T06:27:37;102675.56;;;11.40;100.00
81125;BME280;72192;52.114;5.424;2023-09-30T06:30:25;102675.81;;;11.48;100.00
81125;BME280;72192;52.114;5.424;2023-09-30T06:33:16;102686.16;;;11.54;100.00
81125;BME280;72192;52.114;5.424;2023-09-30T06:36:08;102694.38;;;11.64;100.00
81125;BME280;72192;52.114;5.424;2023-09-30T06:38:57;102703.75;;;11.71;100.00
81125;BME280;72192;52.114;5.424;2023-09-30T06:41:45;102708.75;;;11.75;100.00
81125;BME280;72192;52.114;5.424;2023-09-30T06:44:33;102713.72;;;11.82;100.00
81125;BME280;72192;52.114;5.424;2023-09-30T06:47:22;102712.34;;;11.87;100.00
81125;BME280;72192;52.114;5.424;2023-09-30T06:50:12;102719.84;;;11.95;100.00
81125;BME280;72192;52.114;5.424;2023-09-30T06:53:03;102714.66;;;12.03;100.00
81125;BME280;72192;52.114;5.424;2023-09-30T06:55:51;102721.28;;;12.10;100.00
81125;BME280;72192;52.114;5.424;2023-09-30T06:58:40;102725.19;;;12.17;100.00
81125;BME280;72192;52.114;5.424;2023-09-30T07:01:28;102739.56;;;12.29;100.00
81125;BME280;72192;52.114;5.424;2023-09-30T07:04:16;102737.69;;;12.41;100.00
81125;BME280;72192;52.114;5.424;2023-09-30T07:07:04;102744.75;;;12.85;100.00
81125;BME280;72192;52.114;5.424;2023-09-30T07:09:52;102750.28;;;13.67;98.46
81125;BME280;72192;52.114;5.424;2023-09-30T07:12:40;102752.25;;;14.15;96.29
81125;BME280;72192;52.114;5.424;2023-09-30T07:15:28;102755.06;;;14.63;96.74
81125;BME280;72192;52.114;5.424;2023-09-30T07:18:17;102759.63;;;15.01;94.01
81125;BME280;72192;52.114;5.424;2023-09-30T07:21:05;102757.41;;;15.34;92.31
81125;BME280;72192;52.114;5.424;2023-09-30T07:23:54;102750.91;;;15.54;90.45
81125;BME280;72192;52.114;5.424;2023-09-30T07:26:42;102747.97;;;15.28;90.51
81125;BME280;72192;52.114;5.424;2023-09-30T07:29:30;102747.31;;;14.97;90.67
81125;BME280;72192;52.114;5.424;2023-09-30T07:32:19;102768.50;;;14.84;91.21
81125;BME280;72192;52.114;5.424;2023-09-30T07:35:13;102762.94;;;14.76;91.01
81125;BME280;72192;52.114;5.424;2023-09-30T07:38:03;102769.25;;;14.76;91.23
81125;BME280;72192;52.114;5.424;2023-09-30T07:40:51;102769.38;;;14.75;91.42
81125;BME280;72192;52.114;5.424;2023-09-30T07:43:39;102768.50;;;14.74;91.26
81125;BME280;72192;52.114;5.424;2023-09-30T07:46:28;102773.38;;;14.80;91.36
81125;BME280;72192;52.114;5.424;2023-09-30T07:49:17;102781.25;;;14.83;90.74
81125;BME280;72192;52.114;5.424;2023-09-30T07:52:05;102783.41;;;14.89;90.96
81125;BME280;72192;52.114;5.424;2023-09-30T07:54:53;102779.69;;;14.90;91.15
81125;BME280;72192;52.114;5.424;2023-09-30T07:57:43;102778.50;;;15.03;90.83
81125;BME280;72192;52.114;5.424;2023-09-30T08:00:32;102777.78;;;15.10;90.37
81125;BME280;72192;52.114;5.424;2023-09-30T08:03:20;102778.06;;;15.27;90.37
81125;BME280;72192;52.114;5.424;2023-09-30T08:06:08;102777.88;;;15.47;90.39
81125;BME280;72192;52.114;5.424;2023-09-30T08:08:56;102771.53;;;15.57;89.18
81125;BME280;72192;52.114;5.424;2023-09-30T08:11:44;102767.94;;;15.66;89.54
81125;BME280;72192;52.114;5.424;2023-09-30T08:14:32;102752.09;;;15.79;87.58
81125;BME280;72192;52.114;5.424;2023-09-30T08:17:21;102754.19;;;15.95;87.21
81125;BME280;72192;52.114;5.424;2023-09-30T08:20:08;102757.09;;;16.11;88.30
81125;BME280;72192;52.114;5.424;2023-09-30T08:22:57;102758.47;;;16.25;86.64
81125;BME280;72192;52.114;5.424;2023-09-30T08:25:46;102753.63;;;16.37;85.73
81125;BME280;72192;52.114;5.424;2023-09-30T08:28:34;102744.84;;;16.43;86.56
81125;BME280;72192;52.114;5.424;2023-09-30T08:31:22;102746.56;;;16.44;85.54
81125;BME280;72192;52.114;5.424;2023-09-30T08:34:11;102744.63;;;16.54;85.26
81125;BME280;72192;52.114;5.424;2023-09-30T08:37:01;102747.09;;;16.65;84.54
81125;BME280;72192;52.114;5.424;2023-09-30T08:39:49;102756.13;;;16.66;83.61
81125;BME280;72192;52.114;5.424;2023-09-30T08:42:39;102759.34;;;16.79;83.91
81125;BME280;72192;52.114;5.424;2023-09-30T08:45:28;102764.78;;;16.97;83.81
81125;BME280;72192;52.114;5.424;2023-09-30T08:48:17;102772.38;;;17.03;82.25
81125;BME280;72192;52.114;5.424;2023-09-30T08:51:08;102763.84;;;17.06;82.46
81125;BME280;72192;52.114;5.424;2023-09-30T08:53:56;102753.75;;;17.24;80.88
81125;BME280;72192;52.114;5.424;2023-09-30T08:56:47;102752.47;;;17.36;81.22
81125;BME280;72192;52.114;5.424;2023-09-30T08:59:37;102762.06;;;17.48;81.04
81125;BME280;72192;52.114;5.424;2023-09-30T09:02:30;102760.19;;;17.41;80.68
81125;BME280;72192;52.114;5.424;2023-09-30T09:05:20;102761.16;;;17.40;79.42
81125;BME280;72192;52.114;5.424;2023-09-30T09:08:08;102768.03;;;17.44;80.89
81125;BME280;72192;52.114;5.424;2023-09-30T09:10:58;102772.03;;;17.58;79.63
81125;BME280;72192;52.114;5.424;2023-09-30T09:13:51;102768.59;;;17.73;78.36
81125;BME280;72192;52.114;5.424;2023-09-30T09:16:51;102778.84;;;17.80;78.62
81125;BME280;72192;52.114;5.424;2023-09-30T09:19:40;102780.28;;;17.92;78.44
81125;BME280;72192;52.114;5.424;2023-09-30T09:22:40;102792.75;;;17.94;78.81
81125;BME280;72192;52.114;5.424;2023-09-30T09:25:38;102792.94;;;17.93;77.88
81125;BME280;72192;52.114;5.424;2023-09-30T09:28:34;102803.53;;;17.96;78.73
81125;BME280;72192;52.114;5.424;2023-09-30T09:31:33;102808.41;;;18.18;78.87
81125;BME280;72192;52.114;5.424;2023-09-30T09:34:23;102812.09;;;18.43;77.29
81125;BME280;72192;52.114;5.424;2023-09-30T09:37:19;102815.72;;;18.52;76.79
81125;BME280;72192;52.114;5.424;2023-09-30T09:40:09;102806.13;;;18.56;75.73
81125;BME280;72192;52.114;5.424;2023-09-30T09:43:01;102810.75;;;18.63;76.55
81125;BME280;72192;52.114;5.424;2023-09-30T09:45:55;102810.50;;;18.91;76.21
81125;BME280;72192;52.114;5.424;2023-09-30T09:48:46;102813.03;;;19.17;75.59
81125;BME280;72192;52.114;5.424;2023-09-30T09:51:34;102812.88;;;19.27;73.25
81125;BME280;72192;52.114;5.424;2023-09-30T09:54:22;102815.63;;;19.27;72.69
81125;BME280;72192;52.114;5.424;2023-09-30T09:57:12;102814.63;;;19.28;73.82
81125;BME280;72192;52.114;5.424;2023-09-30T10:00:02;102821.09;;;19.27;74.05
81125;BME280;72192;52.114;5.424;2023-09-30T10:02:52;102827.78;;;19.32;72.26
81125;BME280;72192;52.114;5.424;2023-09-30T10:05:41;102821.09;;;19.35;70.67
81125;BME280;72192;52.114;5.424;2023-09-30T10:08:38;102834.78;;;19.51;70.58
81125;BME280;72192;52.114;5.424;2023-09-30T10:11:32;102816.97;;;19.71;69.20
81125;BME280;72192;52.114;5.424;2023-09-30T10:14:32;102814.38;;;19.78;68.21
81125;BME280;72192;52.114;5.424;2023-09-30T10:17:58;102799.09;;;19.75;65.99
81125;BME280;72192;52.114;5.424;2023-09-30T10:21:07;102797.78;;;20.11;65.96
81125;BME280;72192;52.114;5.424;2023-09-30T10:24:34;102795.50;;;20.22;65.53
81125;BME280;72192;52.114;5.424;2023-09-30T10:30:21;102795.38;;;20.16;63.72
81125;BME280;72192;52.114;5.424;2023-09-30T10:33:09;102784.75;;;20.13;63.90
81125;BME280;72192;52.114;5.424;2023-09-30T10:36:00;102773.28;;;20.09;62.41
81125;BME280;72192;52.114;5.424;2023-09-30T10:38:49;102767.41;;;19.81;64.44
81125;BME280;72192;52.114;5.424;2023-09-30T10:44:32;102772.53;;;19.84;64.96
81125;BME280;72192;52.114;5.424;2023-09-30T10:53:59;102773.19;;;20.25;63.60
81125;BME280;72192;52.114;5.424;2023-09-30T10:56:47;102779.88;;;20.23;63.42
81125;BME280;72192;52.114;5.424;2023-09-30T10:59:35;102764.09;;;20.25;63.64
81125;BME280;72192;52.114;5.424;2023-09-30T11:02:23;102772.16;;;20.26;63.59
81125;BME280;72192;52.114;5.424;2023-09-30T11:05:12;102776.25;;;20.30;62.06
81125;BME280;72192;52.114;5.424;2023-09-30T11:08:02;102767.34;;;20.28;62.40
81125;BME280;72192;52.114;5.424;2023-09-30T11:10:51;102761.25;;;20.49;62.20
81125;BME280;72192;52.114;5.424;2023-09-30T11:13:41;102760.63;;;20.62;61.97
81125;BME280;72192;52.114;5.424;2023-09-30T11:16:29;102758.25;;;20.82;61.19
81125;BME280;72192;52.114;5.424;2023-09-30T11:19:18;102772.53;;;20.77;61.71
81125;BME280;72192;52.114;5.424;2023-09-30T11:22:09;102770.34;;;20.73;60.63
81125;BME280;72192;52.114;5.424;2023-09-30T11:24:58;102765.28;;;20.61;60.07
81125;BME280;72192;52.114;5.424;2023-09-30T11:27:46;102762.47;;;20.39;61.09
81125;BME280;72192;52.114;5.424;2023-09-30T11:30:34;102759.38;;;20.11;60.55
81125;BME280;72192;52.114;5.424;2023-09-30T11:33:22;102751.59;;;19.91;61.46
81125;BME280;72192;52.114;5.424;2023-09-30T11:36:11;102754.94;;;19.70;62.06
81125;BME280;72192;52.114;5.424;2023-09-30T11:39:01;102747.38;;;19.72;62.33
81125;BME280;72192;52.114;5.424;2023-09-30T11:41:50;102740.38;;;20.09;61.98
81125;BME280;72192;52.114;5.424;2023-09-30T11:44:44;102732.13;;;20.63;61.50
81125;BME280;72192;52.114;5.424;2023-09-30T11:47:37;102738.63;;;21.08;59.85
81125;BME280;72192;52.114;5.424;2023-09-30T11:50:45;102742.97;;;21.55;57.23
81125;BME280;72192;52.114;5.424;2023-09-30T11:53:35;102747.03;;;21.59;57.30
81125;BME280;72192;52.114;5.424;2023-09-30T11:56:23;102751.22;;;21.55;56.62
81125;BME280;72192;52.114;5.424;2023-09-30T11:59:17;102751.31;;;21.46;54.63
81125;BME280;72192;52.114;5.424;2023-09-30T12:02:06;102756.44;;;21.35;53.79
81125;BME280;72192;52.114;5.424;2023-09-30T12:04:56;102745.16;;;21.07;54.00
81125;BME280;72192;52.114;5.424;2023-09-30T12:07:44;102739.56;;;21.00;54.12
81125;BME280;72192;52.114;5.424;2023-09-30T12:10:33;102728.97;;;21.12;54.84
81125;BME280;72192;52.114;5.424;2023-09-30T12:13:16;102725.00;;;21.14;52.70
81125;BME280;72192;52.114;5.424;2023-09-30T12:16:05;102720.91;;;20.96;54.86
81125;BME280;72192;52.114;5.424;2023-09-30T12:18:53;102726.84;;;20.84;56.52
81125;BME280;72192;52.114;5.424;2023-09-30T12:21:42;102722.00;;;20.86;55.65
81125;BME280;72192;52.114;5.424;2023-09-30T12:24:33;102710.41;;;21.14;54.47
81125;BME280;72192;52.114;5.424;2023-09-30T12:27:21;102712.69;;;21.25;53.33
81125;BME280;72192;52.114;5.424;2023-09-30T12:30:09;102700.06;;;21.16;53.81
81125;BME280;72192;52.114;5.424;2023-09-30T12:33:00;102696.28;;;21.17;53.23
81125;BME280;72192;52.114;5.424;2023-09-30T12:35:48;102694.19;;;21.19;52.69
81125;BME280;72192;52.114;5.424;2023-09-30T12:38:38;102699.56;;;20.98;52.76
81125;BME280;72192;52.114;5.424;2023-09-30T12:41:26;102701.28;;;20.99;53.14
81125;BME280;72192;52.114;5.424;2023-09-30T12:44:16;102705.75;;;21.14;53.20
81125;BME280;72192;52.114;5.424;2023-09-30T12:47:05;102707.22;;;21.40;52.84
81125;BME280;72192;52.114;5.424;2023-09-30T12:49:53;102703.28;;;21.93;50.57
81125;BME280;72192;52.114;5.424;2023-09-30T12:52:42;102705.53;;;22.04;50.27
81125;BME280;72192;52.114;5.424;2023-09-30T12:55:30;102702.47;;;21.78;50.92
81125;BME280;72192;52.114;5.424;2023-09-30T12:58:19;102710.31;;;21.81;50.37
81125;BME280;72192;52.114;5.424;2023-09-30T13:01:07;102709.56;;;21.87;49.77
81125;BME280;72192;52.114;5.424;2023-09-30T13:03:55;102702.84;;;21.75;50.46
81125;BME280;72192;52.114;5.424;2023-09-30T13:06:43;102703.63;;;21.54;50.04
81125;BME280;72192;52.114;5.424;2023-09-30T13:09:32;102704.00;;;21.66;51.01
81125;BME280;72192;52.114;5.424;2023-09-30T13:12:20;102704.31;;;21.92;49.85
81125;BME280;72192;52.114;5.424;2023-09-30T13:15:08;102701.00;;;21.82;49.32
81125;BME280;72192;52.114;5.424;2023-09-30T13:17:57;102697.34;;;21.60;49.03
81125;BME280;72192;52.114;5.424;2023-09-30T13:20:45;102697.00;;;21.48;49.54
81125;BME280;72192;52.114;5.424;2023-09-30T13:23:34;102692.59;;;21.69;49.58
81125;BME280;72192;52.114;5.424;2023-09-30T13:26:22;102686.25;;;21.83;48.80
81125;BME280;72192;52.114;5.424;2023-09-30T13:29:10;102681.41;;;22.21;49.25
81125;BME280;72192;52.114;5.424;2023-09-30T13:31:59;102685.25;;;22.70;46.71
81125;BME280;72192;52.114;5.424;2023-09-30T13:34:48;102686.50;;;23.16;45.69
81125;BME280;72192;52.114;5.424;2023-09-30T13:37:37;102672.16;;;23.69;45.29
81125;BME280;72192;52.114;5.424;2023-09-30T13:40:26;102662.53;;;23.99;44.35
81125;BME280;72192;52.114;5.424;2023-09-30T13:43:14;102653.88;;;24.22;42.71
81125;BME280;72192;52.114;5.424;2023-09-30T13:46:05;102668.16;;;24.33;43.28
81125;BME280;72192;52.114;5.424;2023-09-30T13:48:53;102669.88;;;24.40;42.98
81125;BME280;72192;52.114;5.424;2023-09-30T13:51:42;102664.34;;;24.60;42.92
81125;BME280;72192;52.114;5.424;2023-09-30T13:54:30;102667.75;;;24.62;43.90
81125;BME280;72192;52.114;5.424;2023-09-30T13:57:18;102664.34;;;24.47;43.86
81125;BME280;72192;52.114;5.424;2023-09-30T14:00:07;102674.06;;;24.23;42.69
81125;BME280;72192;52.114;5.424;2023-09-30T14:02:59;102668.06;;;24.06;44.08
81125;BME280;72192;52.114;5.424;2023-09-30T14:05:47;102671.69;;;24.13;44.12
81125;BME280;72192;52.114;5.424;2023-09-30T14:08:36;102666.34;;;23.51;45.00
81125;BME280;72192;52.114;5.424;2023-09-30T14:11:24;102665.13;;;23.25;45.54
81125;BME280;72192;52.114;5.424;2023-09-30T14:14:12;102651.19;;;23.74;45.56
81125;BME280;72192;52.114;5.424;2023-09-30T14:17:01;102650.25;;;24.15;44.23
81125;BME280;72192;52.114;5.424;2023-09-30T14:19:57;102641.88;;;23.89;44.22
81125;BME280;72192;52.114;5.424;2023-09-30T14:22:45;102644.44;;;23.84;44.70
81125;BME280;72192;52.114;5.424;2023-09-30T14:25:34;102649.59;;;24.00;45.07
81125;BME280;72192;52.114;5.424;2023-09-30T14:28:23;102650.66;;;24.12;45.09
81125;BME280;72192;52.114;5.424;2023-09-30T14:31:11;102649.13;;;23.42;46.01
81125;BME280;72192;52.114;5.424;2023-09-30T14:33:59;102637.09;;;22.87;47.88
81125;BME280;72192;52.114;5.424;2023-09-30T14:36:48;102652.72;;;22.52;49.27
81125;BME280;72192;52.114;5.424;2023-09-30T14:39:37;102648.81;;;22.03;49.87
81125;BME280;72192;52.114;5.424;2023-09-30T14:42:25;102629.56;;;21.53;50.12
81125;BME280;72192;52.114;5.424;2023-09-30T14:45:14;102632.78;;;21.12;52.21
81125;BME280;72192;52.114;5.424;2023-09-30T14:48:02;102633.06;;;20.87;53.56
81125;BME280;72192;52.114;5.424;2023-09-30T14:50:51;102631.25;;;20.65;53.77
81125;BME280;72192;52.114;5.424;2023-09-30T14:53:39;102629.88;;;20.61;54.51
81125;BME280;72192;52.114;5.424;2023-09-30T14:56:27;102636.03;;;20.63;54.29